Time;durP1;ratioP1;P1;durP2;ratioP2;P2;SDS_P1;SDS_P2;PMS_P1;PMS_P2;Temp;Humidity;BMP_temperature;BMP_pressure;BME280_temperature;BME280_humidity;BME280_pressure;Samples;Min_cycle;Max_cycle;Signal;HPM_P1;HPM_P2
2022/04/06 00:01:40;;;;;;;36.22;11.57;;;8.40;99.90;;;;;;5096754;28;20051;-86
2022/04/06 00:04:06;;;;;;;34.35;11.55;;;8.40;99.90;;;;;;5114360;28;20047;-86
2022/04/06 00:06:32;;;;;;;24.92;10.77;;;8.40;99.90;;;;;;5095852;28;20040;-85
2022/04/06 00:08:58;;;;;;;38.38;13.50;;;8.40;99.90;;;;;;5114481;28;20040;-86
2022/04/06 00:11:23;;;;;;;31.48;12.13;;;8.40;99.90;;;;;;5096426;28;20451;-85
2022/04/06 00:13:50;;;;;;;31.30;11.57;;;8.40;99.90;;;;;;5113423;28;20051;-85
2022/04/06 00:16:16;;;;;;;30.55;11.70;;;8.40;99.90;;;;;;5096238;28;20051;-86
2022/04/06 00:18:42;;;;;;;37.55;11.80;;;8.40;99.90;;;;;;5095039;28;20048;-85
2022/04/06 00:21:08;;;;;;;33.83;11.63;;;8.40;99.90;;;;;;5095977;28;20040;-86
2022/04/06 00:23:34;;;;;;;35.78;12.00;;;8.50;99.90;;;;;;5114093;28;20051;-85
2022/04/06 00:26:00;;;;;;;33.58;12.75;;;8.50;99.90;;;;;;5113668;28;20039;-85
2022/04/06 00:28:26;;;;;;;25.42;10.88;;;8.50;99.90;;;;;;5096063;28;20044;-85
2022/04/06 00:30:52;;;;;;;32.72;11.77;;;8.40;99.90;;;;;;5095765;28;20051;-85
2022/04/06 00:33:18;;;;;;;33.05;12.70;;;8.40;99.90;;;;;;5094990;28;20047;-85
2022/04/06 00:35:43;;;;;;;41.50;12.77;;;8.50;99.90;;;;;;5114345;28;20047;-85
2022/04/06 00:38:09;;;;;;;35.63;12.40;;;8.50;99.90;;;;;;5095948;28;20066;-84
2022/04/06 00:40:36;;;;;;;28.15;11.43;;;8.50;99.90;;;;;;5113381;28;20066;-86
2022/04/06 00:43:10;;;;;;;36.03;11.90;;;8.50;99.90;;;;;;5114179;28;20039;-85
2022/04/06 00:45:38;;;;;;;30.90;11.65;;;8.50;99.90;;;;;;5093825;28;20048;-85
2022/04/06 00:48:04;;;;;;;27.42;11.15;;;8.50;99.90;;;;;;5093068;28;20055;-85
2022/04/06 00:50:31;;;;;;;33.28;11.18;;;8.50;99.90;;;;;;5095321;28;20379;-85
2022/04/06 00:52:57;;;;;;;31.90;11.05;;;8.50;99.90;;;;;;5113976;28;20066;-86
2022/04/06 00:55:31;;;;;;;33.40;11.43;;;8.50;99.90;;;;;;5112745;28;20062;-85
2022/04/06 00:57:58;;;;;;;35.45;10.30;;;8.50;99.90;;;;;;5095890;28;20047;-85
2022/04/06 01:00:24;;;;;;;24.35;9.95;;;8.50;99.90;;;;;;5113463;28;20131;-85
2022/04/06 01:02:50;;;;;;;30.75;9.35;;;8.50;99.90;;;;;;5094791;28;20047;-85
2022/04/06 01:05:17;;;;;;;28.85;10.50;;;8.60;99.90;;;;;;5113652;28;20050;-85
2022/04/06 01:07:47;;;;;;;26.05;9.18;;;8.50;99.90;;;;;;5113940;28;20053;-86
2022/04/06 01:10:12;;;;;;;26.02;8.25;;;8.60;99.90;;;;;;5094961;28;20048;-86
2022/04/06 01:12:39;;;;;;;23.40;8.43;;;8.60;99.90;;;;;;5113951;28;20439;-86
2022/04/06 01:15:06;;;;;;;24.00;8.13;;;8.60;99.90;;;;;;5094769;28;20109;-86
2022/04/06 01:17:35;;;;;;;24.52;8.15;;;8.60;99.90;;;;;;5113755;28;20482;-86
2022/04/06 01:20:03;;;;;;;27.73;8.88;;;8.60;99.90;;;;;;5113219;28;20430;-86
2022/04/06 01:22:29;;;;;;;30.83;8.75;;;8.60;99.90;;;;;;5113008;28;20498;-86
2022/04/06 01:24:55;;;;;;;19.90;8.02;;;8.60;99.90;;;;;;5095496;28;20040;-86
2022/04/06 01:27:21;;;;;;;26.23;8.57;;;8.60;99.90;;;;;;5113798;28;20394;-86
2022/04/06 01:29:47;;;;;;;19.73;6.97;;;8.60;99.90;;;;;;5112592;28;20039;-85
2022/04/06 01:32:21;;;;;;;19.92;7.57;;;8.60;99.90;;;;;;5116615;28;20050;-85
2022/04/06 01:34:48;;;;;;;23.60;7.90;;;8.70;99.90;;;;;;5063416;28;20152;-86
2022/04/06 01:37:15;;;;;;;19.67;7.57;;;8.70;99.90;;;;;;5096379;28;20044;-86
2022/04/06 01:39:43;;;;;;;29.58;8.43;;;8.70;99.90;;;;;;5117029;28;20048;-86
2022/04/06 01:42:10;;;;;;;20.10;8.25;;;8.70;99.90;;;;;;5117631;28;20368;-85
2022/04/06 01:44:37;;;;;;;21.30;8.13;;;8.70;99.90;;;;;;5081026;28;20062;-85
2022/04/06 01:47:06;;;;;;;20.92;7.05;;;8.70;99.90;;;;;;5099133;28;20070;-85
2022/04/06 01:52:17;;;;;;;24.08;9.00;;;8.70;99.90;;;;;;5116040;28;20432;-85
2022/04/06 01:54:46;;;;;;;23.08;7.15;;;8.70;99.90;;;;;;5117148;28;20036;-85
2022/04/06 01:57:13;;;;;;;21.40;7.40;;;8.70;99.90;;;;;;5097972;28;20035;-85
2022/04/06 01:59:39;;;;;;;21.75;6.82;;;8.70;99.90;;;;;;5117294;28;20044;-84
2022/04/06 02:02:05;;;;;;;20.58;6.45;;;8.70;99.90;;;;;;5116775;28;20131;-85
2022/04/06 02:04:32;;;;;;;19.15;6.47;;;8.70;99.90;;;;;;5116185;28;20074;-86
2022/04/06 02:06:58;;;;;;;18.52;6.28;;;8.70;99.90;;;;;;5098852;28;20071;-85
2022/04/06 02:09:24;;;;;;;17.05;6.57;;;8.70;99.90;;;;;;5117074;28;20043;-85
2022/04/06 02:11:50;;;;;;;25.42;6.65;;;8.60;99.90;;;;;;5097841;28;20051;-85
2022/04/06 02:14:16;;;;;;;21.83;6.13;;;8.70;99.90;;;;;;5098614;28;20040;-85
2022/04/06 02:16:43;;;;;;;18.88;6.15;;;8.60;99.90;;;;;;5116995;28;20050;-84
2022/04/06 02:19:09;;;;;;;22.67;6.18;;;8.60;99.90;;;;;;5115654;28;20104;-85
2022/04/06 02:21:35;;;;;;;17.08;5.97;;;8.60;99.90;;;;;;5116891;28;20083;-85
2022/04/06 02:24:01;;;;;;;17.42;5.47;;;8.60;99.90;;;;;;5098236;28;20044;-85
2022/04/06 02:26:27;;;;;;;13.48;5.28;;;8.60;99.90;;;;;;5115688;28;20486;-85
2022/04/06 02:28:55;;;;;;;9.43;4.25;;;8.60;99.90;;;;;;5098076;28;20043;-84
2022/04/06 02:31:21;;;;;;;16.38;4.90;;;8.60;99.90;;;;;;5116628;28;20058;-85
2022/04/06 02:33:47;;;;;;;16.73;4.60;;;8.60;99.90;;;;;;5097450;28;20047;-85
2022/04/06 02:36:13;;;;;;;16.58;4.18;;;8.60;99.90;;;;;;5116621;28;20455;-85
2022/04/06 02:38:39;;;;;;;20.75;4.72;;;8.60;99.90;;;;;;5116286;28;20093;-85
2022/04/06 02:41:06;;;;;;;14.45;4.55;;;8.60;99.90;;;;;;5115829;28;20058;-85
2022/04/06 02:43:32;;;;;;;20.33;3.95;;;8.60;99.90;;;;;;5115521;28;20043;-85
2022/04/06 02:45:58;;;;;;;13.68;3.40;;;8.60;99.90;;;;;;5098322;28;20048;-85
2022/04/06 02:48:24;;;;;;;7.90;2.30;;;8.60;99.90;;;;;;5097019;28;20075;-85
2022/04/06 02:50:50;;;;;;;16.67;3.05;;;8.60;99.90;;;;;;5097685;28;20083;-85
2022/04/06 02:53:15;;;;;;;13.40;3.65;;;8.60;99.90;;;;;;5087383;28;20054;-85
2022/04/06 02:55:41;;;;;;;8.85;2.65;;;8.60;99.90;;;;;;5056877;28;20110;-87
2022/04/06 02:58:07;;;;;;;7.55;2.72;;;8.70;99.90;;;;;;5067487;28;20040;-86
2022/04/06 03:00:33;;;;;;;8.40;2.58;;;8.70;99.90;;;;;;5097111;28;20061;-84
2022/04/06 03:02:59;;;;;;;10.52;2.58;;;8.70;99.90;;;;;;5094113;28;20048;-85
2022/04/06 03:05:25;;;;;;;10.85;2.50;;;8.70;99.90;;;;;;5095656;28;20036;-85
2022/04/06 03:07:51;;;;;;;13.77;2.97;;;8.70;99.90;;;;;;5077682;28;20047;-84
2022/04/06 03:10:17;;;;;;;10.55;2.85;;;8.70;99.90;;;;;;5097525;28;20043;-85
2022/04/06 03:12:43;;;;;;;10.25;2.42;;;8.70;99.90;;;;;;5097634;28;20043;-86
2022/04/06 03:15:09;;;;;;;10.77;2.58;;;8.70;99.90;;;;;;5094549;28;20483;-85
2022/04/06 03:17:36;;;;;;;13.40;3.58;;;8.70;99.90;;;;;;5095116;28;20044;-85
2022/04/06 03:20:03;;;;;;;11.90;3.03;;;8.60;99.90;;;;;;5095163;28;20050;-85
2022/04/06 03:22:29;;;;;;;13.98;4.10;;;8.60;99.90;;;;;;5096324;28;20043;-85
2022/04/06 03:24:55;;;;;;;17.38;3.67;;;8.70;99.90;;;;;;5076491;28;20055;-84
2022/04/06 03:27:21;;;;;;;15.05;3.85;;;8.60;99.90;;;;;;5090338;28;20208;-85
2022/04/06 03:29:47;;;;;;;18.17;4.68;;;8.60;99.90;;;;;;5089140;28;20080;-85
2022/04/06 03:32:12;;;;;;;16.90;4.78;;;8.60;99.90;;;;;;5074890;28;20072;-84
2022/04/06 03:34:38;;;;;;;20.23;4.70;;;8.60;99.90;;;;;;5084197;28;20054;-85
2022/04/06 03:37:05;;;;;;;17.88;4.53;;;8.60;99.90;;;;;;5114634;28;20031;-86
2022/04/06 03:39:30;;;;;;;19.73;4.38;;;8.60;99.90;;;;;;5084503;28;20040;-86
2022/04/06 03:41:57;;;;;;;15.88;4.60;;;8.50;99.90;;;;;;5094952;28;20040;-85
2022/04/06 03:44:22;;;;;;;20.10;4.97;;;8.50;99.90;;;;;;5085901;28;20122;-85
2022/04/06 03:46:48;;;;;;;16.02;5.00;;;8.50;99.90;;;;;;5115212;28;20119;-85
2022/04/06 03:49:14;;;;;;;18.42;4.45;;;8.50;99.90;;;;;;5106134;28;20097;-85
2022/04/06 03:51:40;;;;;;;17.70;5.15;;;8.50;99.90;;;;;;5097893;28;20047;-85
2022/04/06 03:54:06;;;;;;;27.52;6.38;;;8.50;99.90;;;;;;5113962;28;20057;-85
2022/04/06 03:56:32;;;;;;;20.20;5.55;;;8.50;99.90;;;;;;5096633;28;20051;-84
2022/04/06 03:58:58;;;;;;;29.20;7.32;;;8.50;99.90;;;;;;5113843;28;20039;-86
2022/04/06 04:01:24;;;;;;;22.35;6.07;;;8.60;99.90;;;;;;5114724;28;20096;-85
2022/04/06 04:03:50;;;;;;;19.20;5.93;;;8.60;99.90;;;;;;5113886;28;20111;-85
2022/04/06 04:06:16;;;;;;;20.00;6.45;;;8.60;99.90;;;;;;5079774;28;20052;-85
2022/04/06 04:08:41;;;;;;;18.05;6.78;;;8.60;99.90;;;;;;5114341;28;20554;-85
2022/04/06 04:11:08;;;;;;;25.08;8.20;;;8.50;99.90;;;;;;5095951;28;20104;-86
2022/04/06 04:13:34;;;;;;;22.65;6.85;;;8.50;99.90;;;;;;5114386;28;20044;-85
2022/04/06 04:16:00;;;;;;;23.67;7.57;;;8.60;99.90;;;;;;5114726;28;20196;-86
2022/04/06 04:18:26;;;;;;;25.25;8.30;;;8.60;99.90;;;;;;5095587;28;20566;-85
2022/04/06 04:21:31;;;;;;;25.92;8.05;;;8.60;99.90;;;;;;5095979;28;20051;-86
2022/04/06 04:23:37;;;;;;;27.08;8.38;;;8.60;99.90;;;;;;5114046;28;20096;-86
2022/04/06 04:26:03;;;;;;;23.05;8.40;;;8.60;99.90;;;;;;5094782;28;20118;-86
2022/04/06 04:28:29;;;;;;;21.23;6.80;;;8.60;99.90;;;;;;5096215;28;20126;-87
2022/04/06 04:30:54;;;;;;;25.92;7.70;;;8.60;99.90;;;;;;5113785;28;20044;-85
2022/04/06 04:33:20;;;;;;;21.25;6.05;;;8.60;99.90;;;;;;5113461;28;20036;-85
2022/04/06 04:35:47;;;;;;;24.80;7.40;;;8.60;99.90;;;;;;5095610;28;20051;-85
2022/04/06 04:38:13;;;;;;;25.90;6.95;;;8.50;99.90;;;;;;5095812;28;20055;-84
2022/04/06 04:40:39;;;;;;;20.08;7.18;;;8.50;99.90;;;;;;5094775;28;20039;-85
2022/04/06 04:43:05;;;;;;;23.80;7.95;;;8.50;99.90;;;;;;5114203;28;20038;-84
2022/04/06 04:45:31;;;;;;;29.65;6.45;;;8.50;99.90;;;;;;5113681;28;20043;-85
2022/04/06 04:47:57;;;;;;;28.92;7.00;;;8.50;99.90;;;;;;5095149;28;20052;-85
2022/04/06 04:50:23;;;;;;;21.58;6.20;;;8.40;99.90;;;;;;5095380;28;20048;-84
2022/04/06 04:52:49;;;;;;;27.15;6.53;;;8.40;99.90;;;;;;5113700;28;20048;-83
2022/04/06 04:55:15;;;;;;;21.92;5.93;;;8.40;99.90;;;;;;5112906;28;20112;-85
2022/04/06 04:57:40;;;;;;;21.77;6.20;;;8.40;99.90;;;;;;5095906;28;20050;-86
2022/04/06 05:00:09;;;;;;;23.92;7.25;;;8.40;99.90;;;;;;5112941;28;20058;-85
2022/04/06 05:02:36;;;;;;;19.25;5.82;;;8.30;99.90;;;;;;5095747;28;20108;-85
2022/04/06 05:05:07;;;;;;;23.83;6.30;;;8.40;99.90;;;;;;5095430;28;20052;-85
2022/04/06 05:07:37;;;;;;;17.80;5.47;;;8.30;99.90;;;;;;5098556;28;20044;-84
2022/04/06 05:10:07;;;;;;;18.98;5.50;;;8.30;99.90;;;;;;5098446;28;20483;-88
2022/04/06 05:12:33;;;;;;;18.60;5.00;;;8.30;99.90;;;;;;5099796;28;20127;-88
2022/04/06 05:14:59;;;;;;;18.92;5.18;;;8.30;99.90;;;;;;5095902;28;20067;-85
2022/04/06 05:17:26;;;;;;;17.92;5.82;;;8.30;99.90;;;;;;5092172;28;20036;-86
2022/04/06 05:19:52;;;;;;;29.17;6.82;;;8.30;99.90;;;;;;5079669;28;20059;-89
2022/04/06 05:22:18;;;;;;;19.80;6.30;;;8.30;99.90;;;;;;5111676;28;20132;-86
2022/04/06 05:24:44;;;;;;;19.80;6.10;;;8.30;99.90;;;;;;5117575;28;20093;-87
2022/04/06 05:27:10;;;;;;;22.33;6.32;;;8.30;99.90;;;;;;5117986;28;20088;-87
2022/04/06 05:29:36;;;;;;;23.35;7.32;;;8.30;99.90;;;;;;5117003;28;20051;-85
2022/04/06 05:32:02;;;;;;;21.70;6.45;;;8.30;99.90;;;;;;5117441;28;20039;-85
2022/04/06 05:34:28;;;;;;;24.73;6.30;;;8.30;99.90;;;;;;5117690;28;20127;-87
2022/04/06 05:36:54;;;;;;;27.45;6.60;;;8.20;99.90;;;;;;5116374;28;20119;-85
2022/04/06 05:39:20;;;;;;;22.35;6.72;;;8.20;99.90;;;;;;5117548;28;20048;-84
2022/04/06 05:41:46;;;;;;;22.95;6.28;;;8.20;99.90;;;;;;5117215;28;20040;-86
2022/04/06 05:44:12;;;;;;;25.52;7.00;;;8.20;99.90;;;;;;5117136;28;20043;-85
2022/04/06 05:46:38;;;;;;;23.00;5.45;;;8.20;99.90;;;;;;5099100;28;20075;-86
2022/04/06 05:49:04;;;;;;;22.58;5.78;;;8.20;99.90;;;;;;5117514;28;20118;-86
2022/04/06 05:51:30;;;;;;;25.83;5.68;;;8.20;99.90;;;;;;5116470;28;20032;-87
2022/04/06 05:53:55;;;;;;;20.35;5.72;;;8.20;99.90;;;;;;5098944;28;20074;-85
2022/04/06 05:56:21;;;;;;;21.33;5.85;;;8.10;99.90;;;;;;5098381;28;20047;-85
2022/04/06 05:58:47;;;;;;;22.48;5.85;;;8.10;99.90;;;;;;5116652;28;20394;-85
2022/04/06 06:01:13;;;;;;;20.58;5.38;;;8.10;99.90;;;;;;5117331;28;20079;-84
2022/04/06 06:03:38;;;;;;;29.10;5.05;;;8.10;99.90;;;;;;5116224;28;20043;-84
2022/04/06 06:06:04;;;;;;;26.42;5.10;;;8.10;99.90;;;;;;5116966;28;20065;-84
2022/04/06 06:08:30;;;;;;;20.42;5.07;;;8.10;99.90;;;;;;5098723;28;20078;-83
2022/04/06 06:10:56;;;;;;;18.27;4.55;;;8.10;99.90;;;;;;5095572;28;20059;-88
2022/04/06 06:13:23;;;;;;;19.73;5.15;;;8.10;99.90;;;;;;5101374;28;20032;-86
2022/04/06 06:15:49;;;;;;;21.63;4.90;;;8.10;99.90;;;;;;5077873;28;20060;-86
2022/04/06 06:18:15;;;;;;;23.73;4.68;;;8.10;99.90;;;;;;5096371;28;20043;-87
2022/04/06 06:20:41;;;;;;;18.58;4.30;;;8.10;99.90;;;;;;5098450;28;20482;-87
2022/04/06 06:23:07;;;;;;;21.10;4.93;;;8.10;99.90;;;;;;5116528;28;20054;-85
2022/04/06 06:25:33;;;;;;;19.58;5.43;;;8.10;99.90;;;;;;5080433;28;20407;-88
2022/04/06 06:28:02;;;;;;;25.30;4.60;;;8.10;99.90;;;;;;5097175;28;20132;-86
2022/04/06 06:30:28;;;;;;;19.92;6.00;;;8.10;99.90;;;;;;5116074;28;20052;-86
2022/04/06 06:32:54;;;;;;;18.48;3.90;;;8.20;99.90;;;;;;5079714;28;20082;-86
2022/04/06 06:35:21;;;;;;;22.35;4.05;;;8.20;99.90;;;;;;5097962;28;20126;-84
2022/04/06 06:37:52;;;;;;;20.63;3.70;;;8.10;99.90;;;;;;5097480;28;20487;-83
2022/04/06 06:40:19;;;;;;;19.35;3.33;;;8.20;99.90;;;;;;5114837;28;20047;-85
2022/04/06 06:42:45;;;;;;;21.95;4.05;;;8.20;99.90;;;;;;5115271;28;20122;-84
2022/04/06 06:45:11;;;;;;;15.68;3.28;;;8.10;99.90;;;;;;5097892;28;20069;-84
2022/04/06 06:47:40;;;;;;;15.93;2.70;;;8.10;99.90;;;;;;5096383;28;20051;-83
2022/04/06 06:50:07;;;;;;;14.82;3.65;;;8.20;99.90;;;;;;5115820;28;20544;-84
2022/04/06 06:52:34;;;;;;;19.90;3.60;;;8.20;99.90;;;;;;5096823;28;20100;-85
2022/04/06 06:55:07;;;;;;;17.65;3.17;;;8.20;99.90;;;;;;5097871;28;20506;-85
2022/04/06 06:57:34;;;;;;;16.17;2.70;;;8.20;99.90;;;;;;5116017;28;20127;-84
2022/04/06 07:00:00;;;;;;;32.15;5.45;;;8.10;99.90;;;;;;5096851;28;20063;-83
2022/04/06 07:02:26;;;;;;;18.02;3.17;;;8.20;99.90;;;;;;5097958;28;20075;-83
2022/04/06 07:04:52;;;;;;;17.13;3.05;;;8.10;99.90;;;;;;5115936;28;20448;-82
2022/04/06 07:07:17;;;;;;;20.02;3.90;;;8.20;99.90;;;;;;5115282;28;20031;-83
2022/04/06 07:09:43;;;;;;;11.27;3.28;;;8.20;99.90;;;;;;5115848;28;20445;-83
2022/04/06 07:12:10;;;;;;;21.20;3.88;;;8.20;99.90;;;;;;5097446;28;20044;-83
2022/04/06 07:14:37;;;;;;;16.55;3.40;;;8.20;99.90;;;;;;5097058;28;20411;-84
2022/04/06 07:17:03;;;;;;;19.60;3.30;;;8.10;99.90;;;;;;5116117;28;20536;-82
2022/04/06 07:19:29;;;;;;;15.00;3.60;;;8.20;99.90;;;;;;5115577;28;20505;-84
2022/04/06 07:21:55;;;;;;;10.45;2.35;;;8.20;99.90;;;;;;5114925;28;20122;-85
2022/04/06 07:24:20;;;;;;;17.13;3.08;;;8.20;99.90;;;;;;5097234;28;20126;-83
2022/04/06 07:26:46;;;;;;;13.90;3.13;;;8.20;99.90;;;;;;5115629;28;20126;-81
2022/04/06 07:29:14;;;;;;;14.32;2.65;;;8.20;99.90;;;;;;5095974;28;20043;-82
2022/04/06 07:31:42;;;;;;;17.75;3.88;;;8.20;99.90;;;;;;5097055;28;20059;-81
2022/04/06 07:34:09;;;;;;;16.67;4.10;;;8.20;99.90;;;;;;5080219;28;20103;-83
2022/04/06 07:36:35;;;;;;;17.67;3.17;;;8.20;99.90;;;;;;5096112;28;20058;-82
2022/04/06 07:39:03;;;;;;;15.50;3.05;;;8.30;99.90;;;;;;5115336;28;20048;-84
2022/04/06 07:41:29;;;;;;;12.43;2.90;;;8.20;99.90;;;;;;5115129;28;20031;-82
2022/04/06 07:43:55;;;;;;;16.88;3.10;;;8.20;99.90;;;;;;5114754;28;20066;-83
2022/04/06 07:46:21;;;;;;;16.52;3.97;;;8.30;99.90;;;;;;5096820;28;20043;-83
2022/04/06 07:48:47;;;;;;;22.13;3.63;;;8.20;99.90;;;;;;5114378;28;20032;-82
2022/04/06 07:51:13;;;;;;;15.50;3.28;;;8.30;99.90;;;;;;5114905;28;20046;-84
2022/04/06 07:53:39;;;;;;;17.00;3.05;;;8.30;99.90;;;;;;5115172;28;20482;-82
2022/04/06 07:56:06;;;;;;;19.40;4.15;;;8.30;99.90;;;;;;5114219;28;20580;-84
2022/04/06 07:58:34;;;;;;;16.98;2.83;;;8.30;99.90;;;;;;5114838;28;20040;-84
2022/04/06 08:01:02;;;;;;;25.98;3.65;;;8.30;99.90;;;;;;5114975;28;20390;-83
2022/04/06 08:03:29;;;;;;;18.65;3.63;;;8.30;99.90;;;;;;5114059;28;20111;-84
2022/04/06 08:05:56;;;;;;;18.50;3.20;;;8.40;99.90;;;;;;5114741;28;20496;-85
2022/04/06 08:08:22;;;;;;;23.02;3.45;;;8.40;99.90;;;;;;5096841;28;20048;-84
2022/04/06 08:10:47;;;;;;;16.52;3.45;;;8.40;99.90;;;;;;5113931;28;20092;-83
2022/04/06 08:13:14;;;;;;;15.07;3.05;;;8.40;99.90;;;;;;5114657;28;20043;-83
2022/04/06 08:15:40;;;;;;;17.55;3.22;;;8.40;99.90;;;;;;5096571;28;20139;-82
2022/04/06 08:18:06;;;;;;;18.35;3.22;;;8.40;99.90;;;;;;5113830;28;20043;-83
2022/04/06 08:20:33;;;;;;;19.15;4.13;;;8.40;99.90;;;;;;5096302;28;20051;-83
2022/04/06 08:22:59;;;;;;;19.52;3.53;;;8.50;99.90;;;;;;5114800;28;20180;-82
2022/04/06 08:25:26;;;;;;;16.35;2.92;;;8.50;99.90;;;;;;5095362;28;20055;-84
2022/04/06 08:27:52;;;;;;;21.73;3.97;;;8.40;99.90;;;;;;5114386;28;20051;-83
2022/04/06 08:30:20;;;;;;;22.75;3.67;;;8.50;99.90;;;;;;5114461;28;20047;-83
2022/04/06 08:32:46;;;;;;;18.42;2.85;;;8.50;99.90;;;;;;5113593;28;20044;-85
2022/04/06 08:35:12;;;;;;;14.73;2.72;;;8.50;99.90;;;;;;5114388;28;20047;-85
2022/04/06 08:37:39;;;;;;;23.52;3.60;;;8.60;99.90;;;;;;5096419;28;20391;-84
2022/04/06 08:40:12;;;;;;;26.42;3.50;;;8.60;99.90;;;;;;5113157;28;20047;-83
2022/04/06 08:42:38;;;;;;;14.15;2.85;;;8.60;99.90;;;;;;5096053;28;20043;-84
2022/04/06 08:45:06;;;;;;;16.42;2.88;;;8.60;99.90;;;;;;5113184;28;20039;-84
2022/04/06 08:47:33;;;;;;;22.15;3.78;;;8.70;99.90;;;;;;5114264;28;20081;-85
2022/04/06 08:50:00;;;;;;;19.73;4.68;;;8.70;99.90;;;;;;5114087;28;20138;-83
2022/04/06 08:52:26;;;;;;;14.82;2.45;;;8.70;99.90;;;;;;5112950;28;20130;-84
2022/04/06 08:54:52;;;;;;;15.00;3.17;;;8.80;99.90;;;;;;5095847;28;20054;-84
2022/04/06 08:57:19;;;;;;;15.73;3.35;;;8.80;99.90;;;;;;5095670;28;20056;-83
2022/04/06 08:59:48;;;;;;;14.52;3.72;;;8.90;99.90;;;;;;5094802;28;20096;-85
2022/04/06 09:02:18;;;;;;;15.10;2.72;;;9.00;99.90;;;;;;5095922;28;20398;-85
2022/04/06 09:04:48;;;;;;;15.90;3.10;;;9.10;99.90;;;;;;5095797;28;20157;-84
2022/04/06 09:07:14;;;;;;;18.15;3.55;;;9.10;99.90;;;;;;5113038;28;20050;-87
2022/04/06 09:09:40;;;;;;;16.65;3.40;;;9.20;99.90;;;;;;5095667;28;20052;-84
2022/04/06 09:12:08;;;;;;;12.77;3.20;;;9.30;99.90;;;;;;5113801;28;20075;-86
2022/04/06 09:14:34;;;;;;;12.85;2.67;;;9.40;99.90;;;;;;5113157;28;20071;-84
2022/04/06 09:17:05;;;;;;;9.60;2.58;;;9.50;99.90;;;;;;5113921;28;20046;-87
2022/04/06 09:19:31;;;;;;;12.85;3.03;;;9.50;99.90;;;;;;5113949;28;20399;-86
2022/04/06 09:21:56;;;;;;;18.02;3.38;;;9.60;99.90;;;;;;5094693;28;20050;-86
2022/04/06 09:24:24;;;;;;;21.00;3.92;;;9.70;99.90;;;;;;5113894;28;20036;-86
2022/04/06 09:27:04;;;;;;;16.65;3.20;;;9.90;99.90;;;;;;5095459;28;20395;-86
2022/04/06 09:29:31;;;;;;;10.55;2.75;;;9.90;99.90;;;;;;5094809;28;20044;-84
2022/04/06 09:32:06;;;;;;;17.63;3.30;;;9.90;99.90;;;;;;5113819;28;20071;-85
2022/04/06 09:34:33;;;;;;;13.82;2.88;;;10.00;99.90;;;;;;5094908;28;20403;-87
2022/04/06 09:36:59;;;;;;;13.38;2.85;;;10.00;99.90;;;;;;5113792;28;20375;-87
2022/04/06 09:39:44;;;;;;;17.48;3.17;;;10.10;99.90;;;;;;5095434;28;20040;-87
2022/04/06 09:42:17;;;;;;;13.02;3.38;;;10.10;99.90;;;;;;5112736;28;20130;-87
2022/04/06 09:47:42;;;;;;;17.55;3.10;;;10.10;99.90;;;;;;5095409;28;20044;-84
2022/04/06 09:50:22;;;;;;;13.73;2.80;;;10.00;99.90;;;;;;5112769;28;20043;-88
2022/04/06 09:52:51;;;;;;;18.00;3.22;;;10.00;99.90;;;;;;5115770;28;20472;-88
2022/04/06 09:55:18;;;;;;;11.85;3.17;;;10.00;99.90;;;;;;5116953;28;20044;-88
2022/04/06 09:57:52;;;;;;;17.90;4.15;;;10.00;99.90;;;;;;5117247;28;20398;-85
2022/04/06 10:00:20;;;;;;;17.95;3.28;;;9.90;99.90;;;;;;5117342;28;20088;-87
2022/04/06 10:03:07;;;;;;;19.30;2.80;;;9.90;99.90;;;;;;5098347;28;20087;-88
2022/04/06 10:05:35;;;;;;;18.48;3.63;;;9.90;99.90;;;;;;5117233;28;20044;-85
2022/04/06 10:08:06;;;;;;;16.98;3.75;;;9.90;99.90;;;;;;5117229;28;20040;-86
2022/04/06 10:10:33;;;;;;;23.27;4.93;;;9.80;99.90;;;;;;5116338;28;20048;-87
2022/04/06 10:13:01;;;;;;;14.07;3.42;;;9.80;99.90;;;;;;5117161;28;20036;-84
2022/04/06 10:15:27;;;;;;;12.18;2.92;;;9.80;99.90;;;;;;5098780;28;20052;-88
2022/04/06 10:17:53;;;;;;;18.27;3.97;;;9.90;99.90;;;;;;5097713;28;20039;-86
2022/04/06 10:20:48;;;;;;;17.17;3.67;;;9.90;99.90;;;;;;5116669;28;20143;-85
2022/04/06 10:23:33;;;;;;;16.00;3.67;;;9.90;99.90;;;;;;5116796;28;20047;-86
2022/04/06 10:26:23;;;;;;;17.40;3.70;;;9.90;99.90;;;;;;5098892;28;20051;-87
2022/04/06 10:28:51;;;;;;;13.88;3.58;;;9.90;99.90;;;;;;5116574;28;20479;-88
2022/04/06 10:31:17;;;;;;;21.27;4.03;;;9.90;99.90;;;;;;5115956;28;20043;-87
2022/04/06 10:33:44;;;;;;;16.50;3.63;;;9.90;99.90;;;;;;5116772;28;20046;-88
2022/04/06 10:36:20;;;;;;;17.67;4.85;;;9.80;99.90;;;;;;5098156;28;20130;-87
2022/04/06 10:39:05;;;;;;;16.90;3.50;;;9.80;99.90;;;;;;5097517;28;20102;-89
2022/04/06 10:41:32;;;;;;;17.98;3.72;;;9.80;99.90;;;;;;5098174;28;20079;-86
2022/04/06 10:43:58;;;;;;;23.17;3.85;;;9.70;99.90;;;;;;5098450;28;20043;-87
2022/04/06 10:46:40;;;;;;;21.15;4.78;;;9.70;99.90;;;;;;5115579;28;20491;-87
2022/04/06 10:49:06;;;;;;;22.98;4.97;;;9.80;99.90;;;;;;5116594;28;20051;-88
2022/04/06 10:51:40;;;;;;;27.17;4.22;;;9.70;99.90;;;;;;5116088;28;20063;-85
2022/04/06 10:54:12;;;;;;;24.00;5.07;;;9.80;99.90;;;;;;5097928;28;20052;-84
2022/04/06 10:56:50;;;;;;;29.60;4.50;;;9.90;99.90;;;;;;5097860;28;20075;-87
2022/04/06 10:59:20;;;;;;;21.25;3.45;;;9.90;99.90;;;;;;5097329;28;20040;-87
2022/04/06 11:01:48;;;;;;;25.35;4.57;;;10.00;99.90;;;;;;5116025;28;20479;-89
2022/04/06 11:04:22;;;;;;;19.45;4.15;;;10.00;99.90;;;;;;5097419;28;20051;-88
2022/04/06 11:06:49;;;;;;;24.08;4.57;;;10.00;99.90;;;;;;5115176;28;20096;-86
2022/04/06 11:12:24;;;;;;;24.42;4.55;;;10.10;99.90;;;;;;5115852;28;20047;-86
2022/04/06 11:15:10;;;;;;;25.73;5.40;;;10.20;99.90;;;;;;5114961;28;20546;-87
2022/04/06 11:17:38;;;;;;;25.00;4.05;;;10.30;99.90;;;;;;5115511;28;20118;-88
2022/04/06 11:20:15;;;;;;;25.27;4.70;;;10.50;99.90;;;;;;5114869;28;20055;-86
2022/04/06 11:22:50;;;;;;;24.73;4.88;;;10.60;99.90;;;;;;5115777;28;20126;-87
2022/04/06 11:25:18;;;;;;;21.90;4.03;;;10.70;99.90;;;;;;5081164;28;20039;-84
2022/04/06 11:27:46;;;;;;;24.13;4.45;;;10.80;99.90;;;;;;5096474;28;20051;-87
2022/04/06 11:30:17;;;;;;;22.00;4.97;;;10.90;99.90;;;;;;5097336;28;20487;-87
2022/04/06 11:32:54;;;;;;;19.02;3.63;;;10.90;99.90;;;;;;5097258;28;20043;-86
2022/04/06 11:35:21;;;;;;;18.35;3.90;;;10.90;99.90;;;;;;5114595;28;20054;-87
2022/04/06 11:37:48;;;;;;;20.48;3.60;;;10.90;99.90;;;;;;5096925;28;20383;-84
2022/04/06 11:40:20;;;;;;;17.23;3.65;;;11.10;99.90;;;;;;5080641;28;20054;-85
2022/04/06 11:42:53;;;;;;;16.55;3.58;;;11.20;99.90;;;;;;5114815;28;20085;-86
2022/04/06 11:45:23;;;;;;;18.42;3.72;;;11.30;99.90;;;;;;5115185;28;20116;-87
2022/04/06 11:47:57;;;;;;;14.82;3.70;;;11.40;99.90;;;;;;5096744;28;20512;-87
2022/04/06 11:50:37;;;;;;;16.40;3.93;;;11.60;99.90;;;;;;5096781;28;20054;-87
2022/04/06 11:53:09;;;;;;;16.58;3.97;;;11.70;99.90;;;;;;5096572;28;20324;-87
2022/04/06 11:55:54;;;;;;;16.23;3.55;;;11.90;99.90;;;;;;5096384;28;20467;-87
2022/04/06 11:58:40;;;;;;;19.77;3.90;;;12.00;99.90;;;;;;5114897;28;20048;-87
2022/04/06 12:01:09;;;;;;;15.23;3.25;;;12.10;99.90;;;;;;5114984;28;20075;-85
2022/04/06 12:03:37;;;;;;;11.70;3.83;;;12.20;99.90;;;;;;5114167;28;20052;-87
2022/04/06 12:06:05;;;;;;;15.73;3.88;;;12.30;99.90;;;;;;5096949;28;20053;-86
2022/04/06 12:08:34;;;;;;;13.85;3.38;;;12.40;99.90;;;;;;5114753;28;20429;-86
2022/04/06 12:11:00;;;;;;;22.02;4.03;;;12.40;99.90;;;;;;5095797;28;20047;-87
2022/04/06 12:13:30;;;;;;;17.67;3.70;;;12.40;99.90;;;;;;5114597;28;20089;-85
2022/04/06 12:15:56;;;;;;;18.88;3.55;;;12.30;99.90;;;;;;5113957;28;20372;-84
2022/04/06 12:18:26;;;;;;;16.20;3.17;;;12.10;99.90;;;;;;5114069;28;20127;-85
2022/04/06 12:20:53;;;;;;;18.77;3.75;;;12.00;99.90;;;;;;5115003;28;20429;-88
2022/04/06 12:23:20;;;;;;;16.30;4.10;;;12.00;99.90;;;;;;5113543;28;20150;-86
2022/04/06 12:25:47;;;;;;;22.05;3.92;;;12.10;99.90;;;;;;5096306;28;20121;-83
2022/04/06 12:28:13;;;;;;;21.75;4.35;;;12.20;99.90;;;;;;5114557;28;20387;-83
2022/04/06 12:30:52;;;;;;;18.15;3.25;;;12.40;99.90;;;;;;5095137;28;20043;-86
2022/04/06 12:33:36;;;;;;;20.45;3.58;;;12.50;99.90;;;;;;5096203;28;20390;-87
2022/04/06 12:36:20;;;;;;;12.80;3.33;;;12.60;99.90;;;;;;5096225;28;20089;-85
2022/04/06 12:38:57;;;;;;;14.65;3.97;;;12.70;99.90;;;;;;5113603;28;20096;-84
2022/04/06 12:41:25;;;;;;;13.13;4.45;;;12.80;99.90;;;;;;5114278;28;20039;-85
2022/04/06 12:43:51;;;;;;;13.45;3.10;;;12.80;99.90;;;;;;5095986;28;20487;-84
2022/04/06 12:46:37;;;;;;;21.15;3.10;;;12.70;99.90;;;;;;5095475;28;20107;-81
2022/04/06 12:49:22;;;;;;;19.75;3.55;;;12.60;99.90;;;;;;5095724;28;20039;-82
2022/04/06 12:52:02;;;;;;;13.75;3.22;;;12.50;99.90;;;;;;5113058;28;20513;-86
2022/04/06 12:54:31;;;;;;;20.15;4.32;;;12.30;99.90;;;;;;5114126;28;20043;-83
2022/04/06 12:57:13;;;;;;;13.70;3.25;;;12.30;99.90;;;;;;5114218;28;20035;-82
2022/04/06 12:59:46;;;;;;;14.98;3.08;;;12.20;99.90;;;;;;5095063;28;20495;-85